Norway House Airport
CYNE : now visible

Airfield :











YOU CAN JOIN US ON...

 
LOGIN :

Register | Disclaimer

   EN    FR    IT 

 









Legend :    VFR   Marginal VFR   IFR   Intensive IFR   Very Intensive IFR
Visi :
Ceiling :
>= 8 km
>= 3000ft
5 to 8 km
1000 to 3000 ft
1500m to 5 km
500 to 1000 ft
800 to 1500m
200 to 500 ft
< 800m
< 200 ft
Symbols :   Thunderstorms  Fog  Heavy snow  Heavy precipitations  Wind > 20 kt






- Airport Elevation : 734 ft
- IATA code : YNE


CYNE - Norway House

CURRENT METAR :
  • 250900Z AUTO 19009G15KT 9SM -SN OVC009 M10/M11 A2991 RMK SLP149

EXPIRED METARs :
  • 250824Z AUTO 20012G18KT 9SM -SN BKN009 M10/M11 A2991 RMK SLP150
  • 250802Z AUTO 20012G20KT 9SM -SN SCT009 M10/M11 A2991 RMK SLP148
  • 250714Z AUTO 19013G22KT 6SM -SN OVC009 M09/M11 A2991 RMK SLP149
  • 250705Z AUTO 19013G20KT 5SM -SN OVC009 M09/M10 A2992 RMK SLP151
  • 250647Z AUTO 19013G21KT 6SM -SN OVC009 M09/M10 A2992 RMK SLP152
  • 250610Z AUTO 20014G20KT 3SM -SN BKN009 M09/M11 A2992 RMK SLP152

TAF TAF CYNE
Valid from the 25 at 07:00 until the 25 at 19:00 UTC


250638Z 2507/2519 19012G22KT P6SM SCT008
TEMPO 2507/2516 21/2SM -SN BR BKN008
PROB30 2507/2516 1SM BR OVC004
FM251600 19008KT P6SM FEW008 BKN100 RMK FCST BASED ON AUTO OBS. NXT FCST BY 251300Z



MET'MAP, your aeronautical weather chart ! - Copyright ORBIFLY December 2007 - Disclaimer

ORBIFLY MET'MAP TEAM :

Programming & Development : Alexandra Zaïnal
Concept & original design : Baudouin d'Aumeries
Assistance for programming : Marc-Olivier Méhu
Technical & hardware support : Manuel Goepfert

Contact : metmap@orbifly.com




SOURCES & CREDITS :

   NOAA       Earth
Advisory